createdAt,value
2022-11-08T00:02:12.200Z,99262.03
2022-11-08T00:04:39.082Z,99261.16
2022-11-08T00:07:24.161Z,99254.25
2022-11-08T00:10:09.017Z,99239.72
2022-11-08T00:12:54.129Z,99225.94
2022-11-08T00:15:21.313Z,99231.13
2022-11-08T00:17:47.853Z,99228.53
2022-11-08T00:20:14.383Z,99206.22
2022-11-08T00:22:40.861Z,99201.91
2022-11-08T00:25:07.824Z,99195.91
2022-11-08T00:27:34.358Z,99191.63
2022-11-08T00:30:00.976Z,99185.63
2022-11-08T00:32:27.486Z,99163.28
2022-11-08T00:34:54.204Z,99165.84
2022-11-08T00:37:22.924Z,99150.38
2022-11-08T00:39:49.477Z,99158.13
2022-11-08T00:42:16.101Z,99156.38
2022-11-08T00:44:42.662Z,99154.66
2022-11-08T00:47:09.479Z,99148.63
2022-11-08T00:49:36.024Z,99145.22
2022-11-08T00:52:02.807Z,99143.47
2022-11-08T00:54:29.357Z,99149.53
2022-11-08T00:56:55.832Z,99147.81
2022-11-08T00:59:22.393Z,99150.41
2022-11-08T01:01:49.042Z,99138.34
2022-11-08T01:04:17.898Z,99138.38
2022-11-08T01:06:44.820Z,99130.63
2022-11-08T01:09:11.758Z,99119.44
2022-11-08T01:11:39.761Z,99113.44
2022-11-08T01:14:06.318Z,99109.97
2022-11-08T01:16:34.159Z,99108.25
2022-11-08T01:19:01.625Z,99091.03
2022-11-08T01:21:29.685Z,99103.94
2022-11-08T01:23:56.556Z,99102.22
2022-11-08T01:26:26.617Z,99100.53
2022-11-08T01:28:54.187Z,99105.69
2022-11-08T01:31:26.161Z,99085.03
2022-11-08T01:33:53.362Z,99091.06
2022-11-08T01:36:22.597Z,99094.50
2022-11-08T01:38:49.863Z,99087.63
2022-11-08T01:41:18.618Z,99097.94
2022-11-08T01:43:53.087Z,99108.28
2022-11-08T01:46:19.552Z,99108.25
2022-11-08T01:49:06.435Z,99108.25
2022-11-08T01:51:41.481Z,99097.06
2022-11-08T01:54:12.262Z,99102.22
2022-11-08T01:56:40.302Z,99099.69
2022-11-08T01:59:10.100Z,99097.06
2022-11-08T02:01:36.997Z,99088.44
2022-11-08T02:04:04.698Z,99091.94
2022-11-08T02:06:33.932Z,99085.91
2022-11-08T02:09:03.804Z,99081.63
2022-11-08T02:11:30.831Z,99090.19
2022-11-08T02:13:58.381Z,99092.78
2022-11-08T02:16:24.880Z,99088.50
2022-11-08T02:18:51.487Z,99091.91
2022-11-08T02:21:28.525Z,99089.34
2022-11-08T02:23:58.939Z,99096.22
2022-11-08T02:26:30.144Z,99093.63
2022-11-08T02:28:56.989Z,99094.47
2022-11-08T02:31:23.592Z,99126.19
2022-11-08T02:33:50.457Z,99174.22
2022-11-08T02:36:21.353Z,99190.47
2022-11-08T02:38:54.405Z,99190.41
2022-11-08T02:41:21.087Z,99191.16
2022-11-08T02:43:47.607Z,99203.16
2022-11-08T02:46:14.422Z,99231.47
2022-11-08T02:48:40.985Z,99258.94
2022-11-08T02:51:07.471Z,99274.28
2022-11-08T02:53:35.383Z,99253.66
2022-11-08T02:56:01.948Z,99233.75
2022-11-08T02:58:28.629Z,99204.50
2022-11-08T03:00:55.259Z,99159.09
2022-11-08T03:03:21.739Z,99137.63
2022-11-08T03:05:48.306Z,99127.44
2022-11-08T03:08:15.327Z,99130.06
2022-11-08T03:10:42.117Z,99126.56
2022-11-08T03:13:08.931Z,99131.69
2022-11-08T03:15:35.751Z,99132.41
2022-11-08T03:18:02.765Z,99116.03
2022-11-08T03:20:32.706Z,99103.13
2022-11-08T03:23:05.552Z,99093.63
2022-11-08T03:25:32.578Z,99079.88
2022-11-08T03:28:04.146Z,99068.75
2022-11-08T03:30:30.881Z,99065.28
2022-11-08T03:32:57.659Z,99061.91
2022-11-08T03:35:24.348Z,99052.41
2022-11-08T03:37:52.009Z,99050.72
2022-11-08T03:40:18.971Z,99048.16
2022-11-08T03:42:46.183Z,99043.19
2022-11-08T03:45:13.229Z,99037.09
2022-11-08T03:47:40.999Z,99026.88
2022-11-08T03:50:07.971Z,99033.75
2022-11-08T03:52:45.966Z,99024.28
2022-11-08T03:55:15.997Z,99018.41
2022-11-08T03:57:44.621Z,99018.44
2022-11-08T04:00:13.033Z,99016.75
2022-11-08T04:02:40.438Z,99015.88
2022-11-08T04:05:09.107Z,99019.28
2022-11-08T04:07:35.838Z,99021.00
2022-11-08T04:10:04.229Z,99015.84
2022-11-08T04:12:49.088Z,99015.88
2022-11-08T04:15:18.954Z,99007.31
2022-11-08T04:18:07.114Z,99017.56
2022-11-08T04:20:52.492Z,98993.59
2022-11-08T04:23:19.021Z,98997.91
2022-11-08T04:25:45.655Z,98989.34
2022-11-08T04:28:12.131Z,98991.09
2022-11-08T04:30:38.792Z,98997.94
2022-11-08T04:33:05.641Z,99008.28
2022-11-08T04:35:32.372Z,99026.28
2022-11-08T04:38:00.494Z,99015.13
2022-11-08T04:40:28.007Z,99014.31
2022-11-08T04:42:54.639Z,99017.72
2022-11-08T04:45:21.273Z,99021.97
2022-11-08T04:47:48.935Z,99033.06
2022-11-08T04:50:15.847Z,99038.19
2022-11-08T04:52:42.696Z,99026.13
2022-11-08T04:55:09.777Z,99021.81
2022-11-08T04:57:36.679Z,99013.25
2022-11-08T05:00:04.167Z,99008.94
2022-11-08T05:02:30.864Z,99010.72
2022-11-08T05:04:57.832Z,98993.66
2022-11-08T05:07:24.441Z,98996.25
2022-11-08T05:09:51.058Z,98996.25
2022-11-08T05:12:17.539Z,98991.97
2022-11-08T05:14:44.097Z,98994.59
2022-11-08T05:17:10.640Z,98998.06
2022-11-08T05:19:55.809Z,98992.06
2022-11-08T05:22:41.131Z,98984.34
2022-11-08T05:25:08.427Z,98973.19
2022-11-08T05:27:35.168Z,98968.03
2022-11-08T05:30:02.019Z,98962.88
2022-11-08T05:32:28.484Z,98965.47
2022-11-08T05:34:55.027Z,98966.34
2022-11-08T05:37:21.620Z,98970.66
2022-11-08T05:39:48.174Z,98967.22
2022-11-08T05:42:14.767Z,98959.44
2022-11-08T05:44:41.312Z,98957.78
2022-11-08T05:47:08.053Z,98962.03
2022-11-08T05:49:34.593Z,98960.31
2022-11-08T05:52:01.497Z,98955.16
2022-11-08T05:54:28.000Z,98956.03
2022-11-08T05:56:54.488Z,98964.63
2022-11-08T05:59:21.154Z,98956.88
2022-11-08T06:01:47.697Z,98957.75
2022-11-08T06:04:14.274Z,98950.88
2022-11-08T06:06:40.994Z,98942.34
2022-11-08T06:09:07.514Z,98944.03
2022-11-08T06:11:34.008Z,98937.19
2022-11-08T06:14:00.525Z,98937.22
2022-11-08T06:16:27.076Z,98935.47
2022-11-08T06:18:53.685Z,98952.63
2022-11-08T06:21:21.384Z,98968.94
2022-11-08T06:23:48.048Z,98967.22
2022-11-08T06:26:14.676Z,98975.75
2022-11-08T06:28:41.531Z,98972.34
2022-11-08T06:31:08.257Z,98964.63
2022-11-08T06:33:35.267Z,98959.50
2022-11-08T06:36:02.327Z,98956.03
2022-11-08T06:38:29.653Z,98954.34
2022-11-08T06:41:00.120Z,98958.66
2022-11-08T06:43:27.209Z,98950.06
2022-11-08T06:45:54.070Z,98940.63
2022-11-08T06:48:20.581Z,98951.78
2022-11-08T06:50:47.269Z,98962.06
2022-11-08T06:53:14.906Z,98961.22
2022-11-08T06:55:41.578Z,98962.09
2022-11-08T06:58:08.094Z,98962.94
2022-11-08T07:00:34.929Z,98962.94
2022-11-08T07:03:03.696Z,98960.38
2022-11-08T07:05:32.330Z,98956.09
2022-11-08T07:08:00.121Z,98961.25
2022-11-08T07:10:32.036Z,98970.69
2022-11-08T07:13:04.735Z,98967.31
2022-11-08T07:15:32.625Z,98984.44
2022-11-08T07:18:01.767Z,98974.16
2022-11-08T07:20:28.711Z,98975.03
2022-11-08T07:22:56.798Z,98977.63
2022-11-08T07:25:23.967Z,98975.03
2022-11-08T07:27:50.694Z,98981.06
2022-11-08T07:30:17.245Z,98981.94
2022-11-08T07:32:43.743Z,98991.38
2022-11-08T07:35:10.220Z,98988.81
2022-11-08T07:37:36.687Z,99002.53
2022-11-08T07:40:03.971Z,98996.53
2022-11-08T07:42:43.817Z,99001.69
2022-11-08T07:45:17.211Z,99009.41
2022-11-08T07:47:43.732Z,99006.84
2022-11-08T07:50:11.212Z,99007.69
2022-11-08T07:52:37.731Z,99008.56
2022-11-08T07:55:04.573Z,99007.69
2022-11-08T07:57:31.358Z,99011.97
2022-11-08T07:59:57.883Z,99023.13
2022-11-08T08:02:24.529Z,99025.69
2022-11-08T08:04:51.080Z,99036.03
2022-11-08T08:07:18.125Z,99030.00
2022-11-08T08:09:44.751Z,99031.69
2022-11-08T08:12:11.402Z,99048.03
2022-11-08T08:14:37.897Z,99046.28
2022-11-08T08:17:04.380Z,99053.16
2022-11-08T08:19:30.996Z,99067.75
2022-11-08T08:21:57.493Z,99066.81
2022-11-08T08:24:24.030Z,99093.47
2022-11-08T08:26:50.656Z,99103.72
2022-11-08T08:29:17.391Z,99132.13
2022-11-08T08:31:44.034Z,99155.34
2022-11-08T08:34:10.583Z,99178.56
2022-11-08T08:36:37.121Z,99193.22
2022-11-08T08:39:03.747Z,99225.94
2022-11-08T08:41:30.363Z,99243.16
2022-11-08T08:43:56.998Z,99243.13
2022-11-08T08:46:23.806Z,99254.28
2022-11-08T08:48:50.496Z,99271.53
2022-11-08T08:51:17.057Z,99274.97
2022-11-08T08:53:43.558Z,99267.19
2022-11-08T08:56:10.130Z,99268.84
2022-11-08T08:58:36.625Z,99284.31
2022-11-08T09:03:51.801Z,99316.19
2022-11-08T09:06:18.336Z,99331.66
2022-11-08T09:08:44.923Z,99341.16
2022-11-08T09:11:11.414Z,99362.72
2022-11-08T09:13:37.994Z,99377.38
2022-11-08T09:16:05.192Z,99380.88
2022-11-08T09:18:32.376Z,99381.69
2022-11-08T09:20:59.913Z,99383.41
2022-11-08T09:23:26.841Z,99394.66
2022-11-08T09:26:00.524Z,99392.03
2022-11-08T09:28:31.303Z,99392.06
2022-11-08T09:31:06.445Z,99386.03
2022-11-08T09:33:33.559Z,99386.03
2022-11-08T09:36:01.811Z,99386.00
2022-11-08T09:38:28.886Z,99381.69
2022-11-08T09:41:16.661Z,99383.41
2022-11-08T09:43:58.710Z,99391.97
2022-11-08T09:46:31.061Z,99397.13
2022-11-08T09:49:01.755Z,99418.63
2022-11-08T09:51:30.013Z,99426.38
2022-11-08T09:53:59.615Z,99424.63
2022-11-08T09:56:36.654Z,99428.88
2022-11-08T09:59:37.266Z,99444.38
2022-11-08T10:02:16.964Z,99451.28
2022-11-08T10:04:49.118Z,99453.91
2022-11-08T10:07:30.561Z,99462.47
2022-11-08T10:10:06.153Z,99467.69
2022-11-08T10:12:41.992Z,99477.16
2022-11-08T10:15:17.661Z,99473.72
2022-11-08T10:17:59.502Z,99478.00
2022-11-08T10:20:43.972Z,99470.22
2022-11-08T10:23:22.064Z,99459.84
2022-11-08T10:26:16.776Z,99469.28
2022-11-08T10:28:51.164Z,99464.84
2022-11-08T10:31:19.841Z,99460.50
2022-11-08T10:33:46.307Z,99455.19
2022-11-08T10:36:22.362Z,99462.13
2022-11-08T10:39:00.886Z,99472.38
2022-11-08T10:41:39.507Z,99485.28
2022-11-08T10:44:20.844Z,99487.84
2022-11-08T10:46:49.756Z,99485.28
2022-11-08T10:49:25.231Z,99488.69
2022-11-08T10:51:56.265Z,99491.19
2022-11-08T10:54:44.298Z,99494.69
2022-11-08T10:57:24.022Z,99499.00
2022-11-08T10:59:51.530Z,99505.00
2022-11-08T11:02:35.402Z,99503.19
2022-11-08T11:05:18.007Z,99499.72
2022-11-08T11:08:04.611Z,99503.22
2022-11-08T11:10:34.440Z,99508.44
2022-11-08T11:13:04.902Z,99511.06
2022-11-08T11:15:36.571Z,99501.56
2022-11-08T11:18:04.313Z,99496.38
2022-11-08T11:20:31.491Z,99491.94
2022-11-08T11:23:01.600Z,99490.13
2022-11-08T11:25:28.771Z,99477.09
2022-11-08T11:28:00.625Z,99472.69
2022-11-08T11:30:32.720Z,99470.00
2022-11-08T11:32:59.232Z,99483.81
2022-11-08T11:35:31.321Z,99486.41
2022-11-08T11:38:00.617Z,99486.44
2022-11-08T11:40:37.763Z,99478.69
2022-11-08T11:43:36.392Z,99480.38
2022-11-08T11:46:13.157Z,99473.47
2022-11-08T11:48:47.150Z,99482.16
2022-11-08T11:51:14.477Z,99473.47
2022-11-08T11:53:47.399Z,99485.47
2022-11-08T11:56:56.872Z,99472.38
2022-11-08T11:59:32.213Z,99475.63
2022-11-08T12:02:29.595Z,99469.31
2022-11-08T12:05:05.224Z,99449.31
2022-11-08T12:07:34.348Z,99445.03
2022-11-08T12:10:03.617Z,99426.81
2022-11-08T12:13:00.762Z,99433.78
2022-11-08T12:15:48.628Z,99427.81
2022-11-08T12:18:43.121Z,99423.44
2022-11-08T12:21:15.037Z,99411.34
2022-11-08T12:23:44.625Z,99403.66
2022-11-08T12:26:42.722Z,99401.03
2022-11-08T12:29:30.470Z,99394.16
2022-11-08T12:32:06.038Z,99378.50
2022-11-08T12:35:03.678Z,99384.56
2022-11-08T12:37:38.906Z,99396.63
2022-11-08T12:40:34.639Z,99402.47
2022-11-08T12:43:26.026Z,99379.66
2022-11-08T12:46:06.961Z,99381.47
2022-11-08T12:48:57.607Z,99379.81
2022-11-08T12:51:24.388Z,99370.19
2022-11-08T12:53:53.985Z,99370.13
2022-11-08T12:56:25.401Z,99375.38
2022-11-08T12:58:54.332Z,99367.75
2022-11-08T13:01:23.057Z,99365.19
2022-11-08T13:03:49.702Z,99365.25
2022-11-08T13:06:25.453Z,99368.63
2022-11-08T13:09:24.026Z,99362.50
2022-11-08T13:12:11.358Z,99347.78
2022-11-08T13:14:41.260Z,99344.25
2022-11-08T13:17:18.683Z,99347.72
2022-11-08T13:19:48.654Z,99347.69
2022-11-08T13:22:44.979Z,99343.34
2022-11-08T13:25:11.508Z,99336.38
2022-11-08T13:27:45.348Z,99338.16
2022-11-08T13:30:11.882Z,99328.78
2022-11-08T13:32:54.431Z,99334.19
2022-11-08T13:35:41.442Z,99340.13
2022-11-08T13:38:52.717Z,99344.53
2022-11-08T13:41:22.589Z,99339.38
2022-11-08T13:43:50.244Z,99345.47
2022-11-08T13:46:31.962Z,99347.34
2022-11-08T13:48:58.438Z,99352.69
2022-11-08T13:51:32.211Z,99361.38
2022-11-08T13:54:04.383Z,99383.97
2022-11-08T13:56:40.508Z,99392.72
2022-11-08T13:59:33.021Z,99393.47
2022-11-08T14:02:10.649Z,99387.44
2022-11-08T14:04:40.455Z,99382.16
2022-11-08T14:07:27.289Z,99375.41
2022-11-08T14:10:22.794Z,99369.34
2022-11-08T14:13:03.513Z,99370.13
2022-11-08T14:15:57.549Z,99368.47
2022-11-08T14:18:27.886Z,99362.44
2022-11-08T14:20:54.996Z,99362.44
2022-11-08T14:23:40.615Z,99364.06
2022-11-08T14:26:20.525Z,99358.09
2022-11-08T14:28:48.053Z,99357.31
2022-11-08T14:31:32.961Z,99358.25
2022-11-08T14:34:01.050Z,99358.28
2022-11-08T14:36:29.804Z,99358.25
2022-11-08T14:39:03.823Z,99354.69
2022-11-08T14:41:32.394Z,99363.38
2022-11-08T14:44:01.774Z,99358.25
2022-11-08T14:46:28.222Z,99357.44
2022-11-08T14:48:56.712Z,99361.75
2022-11-08T14:51:24.462Z,99367.84
2022-11-08T14:53:56.565Z,99368.75
2022-11-08T14:56:28.976Z,99376.66
2022-11-08T14:58:56.049Z,99375.03
2022-11-08T15:01:25.694Z,99377.56
2022-11-08T15:03:58.454Z,99370.66
2022-11-08T15:06:34.183Z,99365.47
2022-11-08T15:09:02.639Z,99362.97
2022-11-08T15:11:35.713Z,99356.13
2022-11-08T15:14:06.183Z,99365.53
2022-11-08T15:16:42.715Z,99358.81
2022-11-08T15:19:44.435Z,99358.81
2022-11-08T15:22:32.033Z,99360.50
2022-11-08T15:25:17.270Z,99374.28
2022-11-08T15:27:58.205Z,99369.28
2022-11-08T15:30:30.449Z,99386.47
2022-11-08T15:32:57.229Z,99382.19
2022-11-08T15:35:33.545Z,99377.00
2022-11-08T15:38:05.628Z,99366.75
2022-11-08T15:40:36.129Z,99374.56
2022-11-08T15:43:03.807Z,99371.19
2022-11-08T15:45:33.086Z,99380.78
2022-11-08T15:48:24.146Z,99392.88
2022-11-08T15:50:50.727Z,99424.00
2022-11-08T15:53:17.417Z,99440.50
2022-11-08T15:56:01.501Z,99449.16
2022-11-08T15:58:30.866Z,99453.44
2022-11-08T16:01:00.028Z,99436.22
2022-11-08T16:03:27.120Z,99424.97
2022-11-08T16:05:53.869Z,99423.34
2022-11-08T16:08:21.170Z,99420.66
2022-11-08T16:10:50.942Z,99424.97
2022-11-08T16:13:26.679Z,99434.56
2022-11-08T16:15:53.434Z,99440.66
2022-11-08T16:18:20.727Z,99442.41
2022-11-08T16:20:47.832Z,99453.72
2022-11-08T16:23:15.014Z,99454.59
2022-11-08T16:25:52.959Z,99434.75
2022-11-08T16:28:35.011Z,99422.72
2022-11-08T16:31:02.920Z,99423.56
2022-11-08T16:33:31.251Z,99424.47
2022-11-08T16:36:03.723Z,99430.47
2022-11-08T16:38:34.560Z,99446.88
2022-11-08T16:41:01.512Z,99446.06
2022-11-08T16:43:28.973Z,99434.88
2022-11-08T16:46:05.280Z,99438.38
2022-11-08T16:48:32.880Z,99430.59
2022-11-08T16:51:04.658Z,99415.88
2022-11-08T16:53:32.270Z,99427.13
2022-11-08T16:55:58.884Z,99434.03
2022-11-08T16:58:26.862Z,99426.25
2022-11-08T17:00:53.762Z,99433.19
2022-11-08T17:03:22.944Z,99422.03
2022-11-08T17:05:49.529Z,99417.72
2022-11-08T17:08:16.911Z,99411.69
2022-11-08T17:10:44.228Z,99412.56
2022-11-08T17:13:14.301Z,99405.66
2022-11-08T17:15:41.714Z,99408.28
2022-11-08T17:18:11.948Z,99406.56
2022-11-08T17:20:39.113Z,99400.53
2022-11-08T17:23:06.038Z,99397.91
2022-11-08T17:25:32.552Z,99396.19
2022-11-08T17:27:59.092Z,99395.34
2022-11-08T17:33:13.108Z,99400.56
2022-11-08T17:35:43.941Z,99391.97
2022-11-08T17:38:11.261Z,99393.66
2022-11-08T17:40:38.109Z,99398.03
2022-11-08T17:43:04.686Z,99397.13
2022-11-08T17:45:31.247Z,99404.88
2022-11-08T17:47:57.749Z,99406.56
2022-11-08T17:50:24.264Z,99404.78
2022-11-08T17:52:54.232Z,99409.16
2022-11-08T17:55:20.824Z,99417.78
2022-11-08T17:57:47.369Z,99413.50
2022-11-08T18:00:14.587Z,99415.22
2022-11-08T18:02:41.077Z,99417.00
2022-11-08T18:05:07.910Z,99401.44
2022-11-08T18:07:34.661Z,99398.03
2022-11-08T18:10:02.683Z,99409.25
2022-11-08T18:12:31.110Z,99401.50
2022-11-08T18:14:57.705Z,99398.94
2022-11-08T18:17:24.283Z,99390.28
2022-11-08T18:19:50.789Z,99389.41
2022-11-08T18:22:17.420Z,99387.69
2022-11-08T18:24:47.431Z,99391.13
2022-11-08T18:27:16.414Z,99392.84
2022-11-08T18:29:43.496Z,99394.56
2022-11-08T18:32:10.150Z,99395.47
2022-11-08T18:34:36.611Z,99398.94
2022-11-08T18:37:03.107Z,99406.69
2022-11-08T18:39:29.582Z,99392.06
2022-11-08T18:41:56.064Z,99387.75
2022-11-08T18:44:22.622Z,99398.09
2022-11-08T18:46:49.111Z,99390.34
2022-11-08T18:49:15.666Z,99376.59
2022-11-08T18:51:42.523Z,99374.84
2022-11-08T18:54:09.025Z,99382.63
2022-11-08T18:56:35.791Z,99383.47
2022-11-08T18:59:02.283Z,99385.16
2022-11-08T19:01:29.040Z,99383.44
2022-11-08T19:03:55.564Z,99380.88
2022-11-08T19:06:22.078Z,99372.25
2022-11-08T19:08:48.572Z,99376.56
2022-11-08T19:11:15.292Z,99375.72
2022-11-08T19:13:42.310Z,99363.56
2022-11-08T19:16:13.401Z,99360.19
2022-11-08T19:18:40.374Z,99352.47
2022-11-08T19:21:20.098Z,99330.91
2022-11-08T19:23:47.911Z,99313.66
2022-11-08T19:26:17.370Z,99313.69
2022-11-08T19:28:45.912Z,99296.50
2022-11-08T19:31:14.649Z,99286.16
2022-11-08T19:33:41.231Z,99288.72
2022-11-08T19:36:12.356Z,99293.06
2022-11-08T19:38:40.021Z,99286.97
2022-11-08T19:41:15.101Z,99281.78
2022-11-08T19:43:43.300Z,99288.72
2022-11-08T19:46:28.827Z,99274.97
2022-11-08T19:48:55.596Z,99268.03
2022-11-08T19:51:24.048Z,99273.25
2022-11-08T19:53:54.917Z,99256.06
2022-11-08T19:56:29.209Z,99238.88
2022-11-08T19:59:04.747Z,99240.56
2022-11-08T20:01:40.119Z,99268.13
2022-11-08T20:04:09.081Z,99264.69
2022-11-08T20:06:36.253Z,99252.66
2022-11-08T20:09:04.815Z,99244.88
2022-11-08T20:11:35.822Z,99250.94
2022-11-08T20:14:04.078Z,99232.88
2022-11-08T20:16:35.838Z,99228.53
2022-11-08T20:19:05.743Z,99222.50
2022-11-08T20:21:32.600Z,99219.06
2022-11-08T20:23:59.057Z,99219.06
2022-11-08T20:26:27.071Z,99225.94
2022-11-08T20:28:57.415Z,99224.25
2022-11-08T20:31:25.458Z,99231.13
2022-11-08T20:33:53.874Z,99223.38
2022-11-08T20:36:22.981Z,99229.44
2022-11-08T20:38:50.361Z,99224.28
2022-11-08T20:41:18.105Z,99220.84
2022-11-08T20:43:47.002Z,99205.34
2022-11-08T20:46:16.596Z,99208.81
2022-11-08T20:48:44.853Z,99209.69
2022-11-08T20:51:13.712Z,99207.09
2022-11-08T20:53:40.345Z,99201.06
2022-11-08T20:56:18.582Z,99205.41
2022-11-08T20:58:46.916Z,99204.53
2022-11-08T21:01:16.801Z,99206.22
2022-11-08T21:03:45.636Z,99208.00
2022-11-08T21:06:18.126Z,99207.13
2022-11-08T21:11:34.492Z,99197.66
2022-11-08T21:14:01.783Z,99188.16
2022-11-08T21:16:31.951Z,99180.44
2022-11-08T21:19:05.197Z,99178.75
2022-11-08T21:21:33.080Z,99172.72
2022-11-08T21:23:59.938Z,99175.31
2022-11-08T21:26:26.678Z,99175.34
2022-11-08T21:28:54.170Z,99165.00
2022-11-08T21:31:20.916Z,99161.56
2022-11-08T21:33:47.701Z,99154.66
2022-11-08T21:36:14.246Z,99159.00
2022-11-08T21:38:41.085Z,99169.31
2022-11-08T21:41:09.819Z,99168.47
2022-11-08T21:43:38.619Z,99171.91
2022-11-08T21:46:16.900Z,99166.75
2022-11-08T21:48:43.793Z,99165.03
2022-11-08T21:51:10.347Z,99157.28
2022-11-08T21:53:45.121Z,99159.03
2022-11-08T21:56:16.126Z,99155.56
2022-11-08T21:58:42.624Z,99153.84
2022-11-08T22:01:09.148Z,99153.88
2022-11-08T22:03:35.946Z,99150.41
2022-11-08T22:06:02.695Z,99151.28
2022-11-08T22:08:29.208Z,99151.28
2022-11-08T22:10:55.717Z,99149.53
2022-11-08T22:13:22.373Z,99137.50
2022-11-08T22:15:49.169Z,99139.22
2022-11-08T22:18:19.798Z,99136.66
2022-11-08T22:21:16.326Z,99144.41
2022-11-08T22:23:42.808Z,99134.91
2022-11-08T22:26:09.298Z,99131.47
2022-11-08T22:28:35.822Z,99126.31
2022-11-08T22:31:02.400Z,99131.50
2022-11-08T22:33:28.937Z,99133.19
2022-11-08T22:35:55.561Z,99123.72
2022-11-08T22:38:22.341Z,99125.47
2022-11-08T22:40:48.855Z,99122.00
2022-11-08T22:43:15.482Z,99120.28
2022-11-08T22:45:43.657Z,99109.09
2022-11-08T22:48:10.666Z,99101.38
2022-11-08T22:50:38.110Z,99106.53
2022-11-08T22:53:05.016Z,99096.19
2022-11-08T22:55:31.762Z,99091.06
2022-11-08T22:57:58.221Z,99085.84
2022-11-08T23:00:24.725Z,99084.16
2022-11-08T23:02:51.894Z,99089.31
2022-11-08T23:05:18.420Z,99088.50
2022-11-08T23:07:44.894Z,99093.59
2022-11-08T23:10:11.377Z,99081.59
2022-11-08T23:12:56.740Z,99085.91
2022-11-08T23:15:42.759Z,99077.28
2022-11-08T23:18:09.487Z,99074.69
2022-11-08T23:20:54.734Z,99066.97
2022-11-08T23:23:39.486Z,99065.25
2022-11-08T23:26:06.038Z,99060.06
2022-11-08T23:28:50.874Z,99059.19
2022-11-08T23:31:35.318Z,99054.94
2022-11-08T23:34:02.897Z,99050.63
2022-11-08T23:36:29.554Z,99053.22
2022-11-08T23:38:57.000Z,99044.56
2022-11-08T23:41:42.970Z,99053.19
2022-11-08T23:44:24.927Z,99053.19
2022-11-08T23:46:51.378Z,99050.66
2022-11-08T23:49:17.865Z,99046.34
2022-11-08T23:51:44.520Z,99042.03
2022-11-08T23:54:11.231Z,99036.88
2022-11-08T23:56:38.014Z,99036.91
2022-11-08T23:59:04.570Z,99042.03
